Time;durP1;ratioP1;P1;durP2;ratioP2;P2;SDS_P1;SDS_P2;PMS_P1;PMS_P2;Temp;Humidity;BMP_temperature;BMP_pressure;BME280_temperature;BME280_humidity;BME280_pressure;Samples;Min_cycle;Max_cycle;Signal;HPM_P1;HPM_P2
2022/03/30 00:01:17;;;;;;;;;;;12.40;89.10;;;;;;5097344;28;19992;-46
2022/03/30 00:03:42;;;;;;;;;;;12.40;90.60;;;;;;5097375;28;19908;-47
2022/03/30 00:06:08;;;;;;;;;;;12.30;89.30;;;;;;5097015;28;19955;-48
2022/03/30 00:08:34;;;;;;;;;;;12.30;89.30;;;;;;5097227;28;19909;-49
2022/03/30 00:10:59;;;;;;;;;;;12.30;90.30;;;;;;5096954;28;19912;-45
2022/03/30 00:13:25;;;;;;;;;;;12.30;90.10;;;;;;5096899;28;19948;-50
2022/03/30 00:15:51;;;;;;;;;;;12.30;90.40;;;;;;5097050;28;19959;-46
2022/03/30 00:18:17;;;;;;;;;;;12.30;90.10;;;;;;5097046;28;19916;-47
2022/03/30 00:20:43;;;;;;;;;;;12.30;90.10;;;;;;5097066;28;19912;-47
2022/03/30 00:23:08;;;;;;;;;;;12.30;90.20;;;;;;5096953;28;19969;-49
2022/03/30 00:25:34;;;;;;;;;;;12.30;90.90;;;;;;5097121;28;19976;-49
2022/03/30 00:28:00;;;;;;;;;;;12.30;89.80;;;;;;5096818;28;19908;-46
2022/03/30 00:30:26;;;;;;;;;;;12.30;91.30;;;;;;5096499;28;20287;-48
2022/03/30 00:32:51;;;;;;;;;;;12.30;90.80;;;;;;5096730;28;19908;-50
2022/03/30 00:35:17;;;;;;;;;;;12.40;90.70;;;;;;5096366;28;19920;-49
2022/03/30 00:37:42;;;;;;;;;;;12.30;90.30;;;;;;5096743;28;19912;-47
2022/03/30 00:40:10;;;;;;;;;;;12.30;89.60;;;;;;5096601;28;20309;-48
2022/03/30 00:42:35;;;;;;;;;;;12.30;90.20;;;;;;5096412;28;20281;-49
2022/03/30 00:45:12;;;;;;;;;;;12.30;90.60;;;;;;5096532;28;19908;-50
2022/03/30 00:47:38;;;;;;;;;;;12.20;91.10;;;;;;5096405;28;20350;-47
2022/03/30 00:50:04;;;;;;;;;;;12.10;90.40;;;;;;5096648;28;19934;-49
2022/03/30 00:52:30;;;;;;;;;;;12.10;90.40;;;;;;5096270;28;19947;-50
2022/03/30 00:54:57;;;;;;;;;;;12.20;90.40;;;;;;5096532;28;19947;-47
2022/03/30 00:57:23;;;;;;;;;;;12.10;90.70;;;;;;5096414;28;20260;-48
2022/03/30 00:59:49;;;;;;;;;;;12.20;90.30;;;;;;5095991;28;19930;-51
2022/03/30 01:02:15;;;;;;;;;;;12.10;90.80;;;;;;5096206;28;20016;-49
2022/03/30 01:04:41;;;;;;;;;;;12.10;91.80;;;;;;5096103;28;19909;-46
2022/03/30 01:07:06;;;;;;;;;;;12.10;91.60;;;;;;5096038;28;19912;-48
2022/03/30 01:09:32;;;;;;;;;;;12.10;91.20;;;;;;5096194;28;20053;-50
2022/03/30 01:11:57;;;;;;;;;;;12.10;91.00;;;;;;5096087;28;19912;-48
2022/03/30 01:14:23;;;;;;;;;;;12.20;91.20;;;;;;5095905;28;19919;-49
2022/03/30 01:16:49;;;;;;;;;;;12.10;91.00;;;;;;5096231;28;19954;-53
2022/03/30 01:19:15;;;;;;;;;;;12.20;90.50;;;;;;5095822;28;19916;-46
2022/03/30 01:21:41;;;;;;;;;;;12.10;90.20;;;;;;5095882;28;20354;-46
2022/03/30 01:24:08;;;;;;;;;;;12.10;91.20;;;;;;5095470;28;19908;-48
2022/03/30 01:26:34;;;;;;;;;;;12.10;91.20;;;;;;5096143;28;20303;-49
2022/03/30 01:28:59;;;;;;;;;;;12.10;91.20;;;;;;5095726;28;19909;-47
2022/03/30 01:34:09;;;;;;;;;;;12.10;92.00;;;;;;5095775;28;19957;-51
2022/03/30 01:36:35;;;;;;;;;;;12.10;92.30;;;;;;5095300;28;19908;-48
2022/03/30 01:39:04;;;;;;;;;;;12.10;92.30;;;;;;5095503;28;19966;-48
2022/03/30 01:41:30;;;;;;;;;;;12.10;91.40;;;;;;5095408;28;19912;-49
2022/03/30 01:43:56;;;;;;;;;;;12.20;92.40;;;;;;5094639;28;19915;-47
2022/03/30 01:46:22;;;;;;;;;;;12.20;91.20;;;;;;5095326;28;19908;-51
2022/03/30 01:48:48;;;;;;;;;;;12.10;91.40;;;;;;5094977;28;20513;-47
2022/03/30 01:51:13;;;;;;;;;;;12.10;91.20;;;;;;5095242;28;19908;-49
2022/03/30 01:53:39;;;;;;;;;;;12.10;91.10;;;;;;5095215;28;20415;-48
2022/03/30 01:56:04;;;;;;;;;;;12.10;91.50;;;;;;5095222;28;20364;-48
2022/03/30 01:58:30;;;;;;;;;;;12.10;91.50;;;;;;5094923;28;20267;-47
2022/03/30 02:00:57;;;;;;;;;;;12.00;91.70;;;;;;5095035;28;19919;-48
2022/03/30 02:03:23;;;;;;;;;;;12.20;90.80;;;;;;5093670;28;20347;-48
2022/03/30 02:05:49;;;;;;;;;;;12.10;90.10;;;;;;5094875;28;19995;-49
2022/03/30 02:08:14;;;;;;;;;;;12.00;90.30;;;;;;5094959;28;20346;-50
2022/03/30 02:10:40;;;;;;;;;;;12.00;91.10;;;;;;5095186;28;19994;-50
2022/03/30 02:13:05;;;;;;;;;;;12.00;92.40;;;;;;5094687;28;19908;-48
2022/03/30 02:15:31;;;;;;;;;;;12.00;92.50;;;;;;5094823;28;19912;-45
2022/03/30 02:17:59;;;;;;;;;;;12.00;92.90;;;;;;5095044;28;19908;-48
2022/03/30 02:20:25;;;;;;;;;;;12.00;92.80;;;;;;5094555;28;19966;-47
2022/03/30 02:22:51;;;;;;;;;;;11.90;91.80;;;;;;5093443;28;20316;-45
2022/03/30 02:25:16;;;;;;;;;;;12.00;93.80;;;;;;5094203;28;19908;-47
2022/03/30 02:27:42;;;;;;;;;;;11.90;92.30;;;;;;5093223;28;19908;-50
2022/03/30 02:30:08;;;;;;;;;;;11.90;92.90;;;;;;5094492;28;19913;-45
2022/03/30 02:32:36;;;;;;;;;;;12.00;93.10;;;;;;5093133;28;20003;-51
2022/03/30 02:35:02;;;;;;;;;;;12.00;93.80;;;;;;5094138;28;19908;-48
2022/03/30 02:37:28;;;;;;;;;;;12.00;93.90;;;;;;5094034;28;19912;-47
2022/03/30 02:39:53;;;;;;;;;;;12.00;93.50;;;;;;5094309;28;19964;-46
2022/03/30 02:42:19;;;;;;;;;;;11.90;92.90;;;;;;5094104;28;20007;-52
2022/03/30 02:44:44;;;;;;;;;;;11.90;93.20;;;;;;5094276;28;20053;-52
2022/03/30 02:47:10;;;;;;;;;;;12.00;93.70;;;;;;5094303;28;19961;-52
2022/03/30 02:49:35;;;;;;;;;;;12.00;94.80;;;;;;5094226;28;19908;-49
2022/03/30 02:52:01;;;;;;;;;;;11.90;93.60;;;;;;5093846;28;19908;-49
2022/03/30 02:54:27;;;;;;;;;;;11.90;94.60;;;;;;5094010;28;19951;-51
2022/03/30 02:56:52;;;;;;;;;;;11.90;94.00;;;;;;5093881;28;19934;-48
2022/03/30 02:59:18;;;;;;;;;;;11.80;94.10;;;;;;5094121;28;19962;-49
2022/03/30 03:01:44;;;;;;;;;;;11.80;95.00;;;;;;5093718;28;20274;-48
2022/03/30 03:04:10;;;;;;;;;;;11.70;94.70;;;;;;5094059;28;20301;-50
2022/03/30 03:06:35;;;;;;;;;;;11.70;94.60;;;;;;5093544;28;19908;-47
2022/03/30 03:09:01;;;;;;;;;;;11.60;94.20;;;;;;5093793;28;19909;-48
2022/03/30 03:11:26;;;;;;;;;;;11.50;94.30;;;;;;5093908;28;19915;-48
2022/03/30 03:13:52;;;;;;;;;;;11.50;94.20;;;;;;5093882;28;19915;-50
2022/03/30 03:16:18;;;;;;;;;;;11.60;94.80;;;;;;5094160;28;20361;-50
2022/03/30 03:18:44;;;;;;;;;;;11.60;94.90;;;;;;5093391;28;20267;-49
2022/03/30 03:21:10;;;;;;;;;;;11.60;94.60;;;;;;5093828;28;20004;-49
2022/03/30 03:23:35;;;;;;;;;;;11.60;94.00;;;;;;5093433;28;20046;-48
2022/03/30 03:26:01;;;;;;;;;;;11.50;94.20;;;;;;5093779;28;19908;-47
2022/03/30 03:28:27;;;;;;;;;;;11.50;94.50;;;;;;5093785;28;20012;-49
2022/03/30 03:30:52;;;;;;;;;;;11.40;94.50;;;;;;5093371;28;19920;-49
2022/03/30 03:33:18;;;;;;;;;;;11.40;94.10;;;;;;5093560;28;19912;-48
2022/03/30 03:35:45;;;;;;;;;;;11.40;95.00;;;;;;5093710;28;19908;-50
2022/03/30 03:38:10;;;;;;;;;;;11.30;94.30;;;;;;5093483;28;20377;-47
2022/03/30 03:40:36;;;;;;;;;;;11.30;94.50;;;;;;5093681;28;19912;-45
2022/03/30 03:43:02;;;;;;;;;;;11.30;96.30;;;;;;5095422;28;20343;-49
2022/03/30 03:45:28;;;;;;;;;;;11.40;93.80;;;;;;5102709;28;19957;-50
2022/03/30 03:47:53;;;;;;;;;;;11.30;96.10;;;;;;5103412;28;19916;-50
2022/03/30 03:50:19;;;;;;;;;;;11.30;93.60;;;;;;5096263;28;20326;-46
2022/03/30 03:52:44;;;;;;;;;;;11.30;95.40;;;;;;5093580;28;20347;-48
2022/03/30 03:55:10;;;;;;;;;;;11.40;94.50;;;;;;5093571;28;19952;-45
2022/03/30 03:57:39;;;;;;;;;;;11.40;95.40;;;;;;5093223;28;20062;-46
2022/03/30 04:00:05;;;;;;;;;;;11.40;95.10;;;;;;5093849;28;20362;-48
2022/03/30 04:02:30;;;;;;;;;;;11.40;94.60;;;;;;5103574;28;19914;-46
2022/03/30 04:04:56;;;;;;;;;;;11.50;94.20;;;;;;5093407;28;20381;-47
2022/03/30 04:07:21;;;;;;;;;;;11.50;94.40;;;;;;5095678;28;19912;-48
2022/03/30 04:09:47;;;;;;;;;;;11.50;93.90;;;;;;5096883;28;19908;-47
2022/03/30 04:12:12;;;;;;;;;;;11.50;95.00;;;;;;5100835;28;20412;-47
2022/03/30 04:14:38;;;;;;;;;;;11.40;94.40;;;;;;5116548;28;19957;-50
2022/03/30 04:17:04;;;;;;;;;;;11.40;94.40;;;;;;5110949;28;19908;-52
2022/03/30 04:19:30;;;;;;;;;;;11.40;94.40;;;;;;5096261;28;19995;-46
2022/03/30 04:21:55;;;;;;;;;;;11.40;93.90;;;;;;5096824;28;19965;-47
2022/03/30 04:24:21;;;;;;;;;;;11.30;94.40;;;;;;5096415;28;20347;-49
2022/03/30 04:26:46;;;;;;;;;;;11.30;94.30;;;;;;5093088;28;19952;-48
2022/03/30 04:29:12;;;;;;;;;;;11.30;94.20;;;;;;5115875;28;20333;-49
2022/03/30 04:31:37;;;;;;;;;;;11.20;94.70;;;;;;5108406;28;19969;-51
2022/03/30 04:34:03;;;;;;;;;;;11.20;95.10;;;;;;5096225;28;19915;-49
2022/03/30 04:36:28;;;;;;;;;;;11.20;95.10;;;;;;5095330;28;19908;-46
2022/03/30 04:38:54;;;;;;;;;;;11.30;96.40;;;;;;5095413;28;20008;-51
2022/03/30 04:41:20;;;;;;;;;;;11.30;95.70;;;;;;5096494;28;20384;-50
2022/03/30 04:43:45;;;;;;;;;;;11.30;94.50;;;;;;5094611;28;19912;-48
2022/03/30 04:46:12;;;;;;;;;;;11.20;94.90;;;;;;5116400;28;19914;-46
2022/03/30 04:48:39;;;;;;;;;;;11.30;95.80;;;;;;5109184;28;20289;-47
2022/03/30 04:51:04;;;;;;;;;;;11.30;94.30;;;;;;5095927;28;19908;-48
2022/03/30 04:53:30;;;;;;;;;;;11.20;95.50;;;;;;5096172;28;20308;-47
2022/03/30 04:55:55;;;;;;;;;;;11.30;94.20;;;;;;5095996;28;19953;-50
2022/03/30 04:58:21;;;;;;;;;;;11.30;93.70;;;;;;5091321;28;19915;-51
2022/03/30 05:00:47;;;;;;;;;;;11.30;94.60;;;;;;5110120;28;20014;-48
2022/03/30 05:03:12;;;;;;;;;;;11.30;95.00;;;;;;5115737;28;19954;-51
2022/03/30 05:05:38;;;;;;;;;;;11.30;94.30;;;;;;5094677;28;20354;-52
2022/03/30 05:08:03;;;;;;;;;;;11.20;94.40;;;;;;5095663;28;19904;-52
2022/03/30 05:10:29;;;;;;;;;;;11.30;93.80;;;;;;5095700;28;19923;-46
2022/03/30 05:12:55;;;;;;;;;;;11.30;95.10;;;;;;5103388;28;20413;-48
2022/03/30 05:15:23;;;;;;;;;;;11.30;94.00;;;;;;5094000;28;20266;-46
2022/03/30 05:17:48;;;;;;;;;;;11.40;93.90;;;;;;5094219;28;19970;-50
2022/03/30 05:20:14;;;;;;;;;;;11.30;95.00;;;;;;5093451;28;20307;-48
2022/03/30 05:22:40;;;;;;;;;;;11.40;94.10;;;;;;5095130;28;20041;-48
2022/03/30 05:25:06;;;;;;;;;;;11.40;94.30;;;;;;5093944;28;19911;-48
2022/03/30 05:27:32;;;;;;;;;;;11.40;94.20;;;;;;5092847;28;19916;-48
2022/03/30 05:29:57;;;;;;;;;;;11.50;93.60;;;;;;5092657;28;19912;-50
2022/03/30 05:32:23;;;;;;;;;;;11.40;93.80;;;;;;5093076;28;20404;-50
2022/03/30 05:34:48;;;;;;;;;;;11.50;93.10;;;;;;5093126;28;19961;-51
2022/03/30 05:37:14;;;;;;;;;;;11.50;95.00;;;;;;5092907;28;19935;-50
2022/03/30 05:39:42;;;;;;;;;;;11.50;93.30;;;;;;5092787;28;19915;-48
2022/03/30 05:42:11;;;;;;;;;;;11.60;93.80;;;;;;5093530;28;20384;-46
2022/03/30 05:44:37;;;;;;;;;;;11.60;96.00;;;;;;5094698;28;19905;-49
2022/03/30 05:47:03;;;;;;;;;;;11.70;95.70;;;;;;5093994;28;19910;-49
2022/03/30 05:49:28;;;;;;;;;;;11.60;93.50;;;;;;5094046;28;19951;-50
2022/03/30 05:51:54;;;;;;;;;;;11.70;93.60;;;;;;5094235;28;19904;-46
2022/03/30 05:54:19;;;;;;;;;;;11.70;95.20;;;;;;5094478;28;19973;-51
2022/03/30 05:57:00;;;;;;;;;;;11.70;93.70;;;;;;5093887;28;19904;-48
2022/03/30 05:59:32;;;;;;;;;;;11.70;94.50;;;;;;5094319;28;19911;-49
2022/03/30 06:01:59;;;;;;;;;;;11.80;94.30;;;;;;5094366;28;20374;-49
2022/03/30 06:04:24;;;;;;;;;;;11.80;93.20;;;;;;5093994;28;20338;-46
2022/03/30 06:06:50;;;;;;;;;;;11.60;93.60;;;;;;5092576;28;19904;-45
2022/03/30 06:09:16;;;;;;;;;;;11.70;95.00;;;;;;5093937;28;19973;-49
2022/03/30 06:11:42;;;;;;;;;;;11.80;93.30;;;;;;5094411;28;19958;-49
2022/03/30 06:14:07;;;;;;;;;;;11.90;95.80;;;;;;5093911;28;19912;-45
2022/03/30 06:16:33;;;;;;;;;;;12.10;95.20;;;;;;5093924;28;19910;-48
2022/03/30 06:18:58;;;;;;;;;;;12.10;94.00;;;;;;5093812;28;20106;-48
2022/03/30 06:21:24;;;;;;;;;;;12.20;93.80;;;;;;5092060;28;19908;-49
2022/03/30 06:23:49;;;;;;;;;;;12.30;94.10;;;;;;5093569;28;20017;-48
2022/03/30 06:26:15;;;;;;;;;;;12.30;93.30;;;;;;5093756;28;20325;-49
2022/03/30 06:28:41;;;;;;;;;;;12.40;93.20;;;;;;5093706;28;19904;-50
2022/03/30 06:31:06;;;;;;;;;;;12.50;92.80;;;;;;5093851;28;20239;-50
2022/03/30 06:33:32;;;;;;;;;;;12.50;91.90;;;;;;5093782;28;19915;-49
2022/03/30 06:35:58;;;;;;;;;;;12.40;92.60;;;;;;5094002;28;19908;-46
2022/03/30 06:38:24;;;;;;;;;;;12.50;92.80;;;;;;5094050;28;20295;-50
2022/03/30 06:40:50;;;;;;;;;;;12.50;93.20;;;;;;5104171;28;19923;-48
2022/03/30 06:43:15;;;;;;;;;;;12.70;92.50;;;;;;5114168;28;19907;-49
2022/03/30 06:45:43;;;;;;;;;;;12.70;92.40;;;;;;5095466;28;20303;-49
2022/03/30 06:48:09;;;;;;;;;;;12.80;92.50;;;;;;5094041;28;19948;-49
2022/03/30 06:50:35;;;;;;;;;;;12.90;93.20;;;;;;5093198;28;19911;-48
2022/03/30 06:53:01;;;;;;;;;;;12.90;93.00;;;;;;5093519;28;19949;-47
2022/03/30 06:55:26;;;;;;;;;;;12.90;91.70;;;;;;5098817;28;20331;-46
2022/03/30 06:57:52;;;;;;;;;;;12.90;91.70;;;;;;5093359;28;19908;-48
2022/03/30 07:00:17;;;;;;;;;;;12.90;91.80;;;;;;5093061;28;19912;-51
2022/03/30 07:02:43;;;;;;;;;;;12.90;92.70;;;;;;5093500;28;19915;-47
2022/03/30 07:05:09;;;;;;;;;;;12.80;91.60;;;;;;5093324;28;19905;-50
2022/03/30 07:10:19;;;;;;;;;;;12.90;92.00;;;;;;5093739;28;19911;-47
2022/03/30 07:12:48;;;;;;;;;;;12.90;92.00;;;;;;5093580;28;19904;-47
2022/03/30 07:15:15;;;;;;;;;;;12.70;92.10;;;;;;5093011;28;19904;-45
2022/03/30 07:17:51;;;;;;;;;;;12.80;93.20;;;;;;5093820;28;19939;-47
2022/03/30 07:20:17;;;;;;;;;;;12.80;92.50;;;;;;5093156;28;19912;-52
2022/03/30 07:22:43;;;;;;;;;;;12.70;92.30;;;;;;5110654;28;19918;-47
2022/03/30 07:25:10;;;;;;;;;;;12.70;92.80;;;;;;5106376;28;20293;-49
2022/03/30 07:27:39;;;;;;;;;;;12.70;93.00;;;;;;5093618;28;20241;-50
2022/03/30 07:30:06;;;;;;;;;;;12.60;93.10;;;;;;5093272;28;19943;-48
2022/03/30 07:32:31;;;;;;;;;;;12.70;92.90;;;;;;5093520;28;19987;-47
2022/03/30 07:34:58;;;;;;;;;;;12.80;93.50;;;;;;5093381;28;20333;-50
2022/03/30 07:37:24;;;;;;;;;;;12.90;93.20;;;;;;5092806;28;19912;-52
2022/03/30 07:39:49;;;;;;;;;;;13.00;92.90;;;;;;5093752;28;19934;-47
2022/03/30 07:42:14;;;;;;;;;;;13.30;92.40;;;;;;5097875;28;20333;-48
2022/03/30 07:44:40;;;;;;;;;;;13.30;92.70;;;;;;5095933;28;19904;-53
2022/03/30 07:47:07;;;;;;;;;;;13.30;92.30;;;;;;5105172;28;19972;-48
2022/03/30 07:49:32;;;;;;;;;;;13.20;92.20;;;;;;5100784;28;19919;-50
2022/03/30 07:52:00;;;;;;;;;;;13.00;92.40;;;;;;5097470;28;19912;-46
2022/03/30 07:54:26;;;;;;;;;;;12.80;92.60;;;;;;5097783;28;19908;-50
2022/03/30 07:56:51;;;;;;;;;;;12.90;93.10;;;;;;5097775;28;20373;-48
2022/03/30 07:59:17;;;;;;;;;;;12.80;92.70;;;;;;5099957;28;19961;-45
2022/03/30 08:01:42;;;;;;;;;;;12.70;93.30;;;;;;5107402;28;19980;-51
2022/03/30 08:04:08;;;;;;;;;;;12.90;93.40;;;;;;5096653;28;19912;-42
2022/03/30 08:06:34;;;;;;;;;;;12.90;93.20;;;;;;5084778;28;20003;-46
2022/03/30 08:08:59;;;;;;;;;;;13.00;93.00;;;;;;5116879;28;19950;-47
2022/03/30 08:11:25;;;;;;;;;;;13.10;92.60;;;;;;5110097;28;20255;-49
2022/03/30 08:13:51;;;;;;;;;;;13.00;93.00;;;;;;5094553;28;19916;-46
2022/03/30 08:16:17;;;;;;;;;;;13.20;93.40;;;;;;5094920;28;19912;-54
2022/03/30 08:18:43;;;;;;;;;;;13.50;93.20;;;;;;5095692;28;20056;-49
2022/03/30 08:23:52;;;;;;;;;;;13.60;93.00;;;;;;5106479;28;19999;-50
2022/03/30 08:26:20;;;;;;;;;;;13.60;93.00;;;;;;5113117;28;19951;-47
2022/03/30 08:28:45;;;;;;;;;;;13.70;93.40;;;;;;5092772;28;19911;-53
2022/03/30 08:31:11;;;;;;;;;;;13.80;93.00;;;;;;5095473;28;19926;-53
2022/03/30 08:33:36;;;;;;;;;;;13.90;92.80;;;;;;5104881;28;20235;-49
2022/03/30 08:36:02;;;;;;;;;;;13.90;92.80;;;;;;5112003;28;19908;-45
2022/03/30 08:38:27;;;;;;;;;;;13.80;92.10;;;;;;5114230;28;19926;-48
2022/03/30 08:40:56;;;;;;;;;;;13.80;93.00;;;;;;5105385;28;19968;-47
2022/03/30 08:43:22;;;;;;;;;;;13.70;93.40;;;;;;5101563;28;20316;-50
2022/03/30 08:45:47;;;;;;;;;;;13.60;92.50;;;;;;5111633;28;19916;-49
2022/03/30 08:48:12;;;;;;;;;;;13.50;93.50;;;;;;5104526;28;19919;-49
2022/03/30 08:50:38;;;;;;;;;;;13.70;93.40;;;;;;5099886;28;19975;-48
2022/03/30 08:53:05;;;;;;;;;;;13.80;93.60;;;;;;5115418;28;19952;-45
2022/03/30 08:55:31;;;;;;;;;;;13.80;93.00;;;;;;5113405;28;19999;-49
2022/03/30 08:57:56;;;;;;;;;;;13.80;93.40;;;;;;5103896;28;19951;-47
2022/03/30 09:00:22;;;;;;;;;;;13.70;93.30;;;;;;5113809;28;19998;-52
2022/03/30 09:03:03;;;;;;;;;;;13.70;93.90;;;;;;5110380;28;19924;-52
2022/03/30 09:05:33;;;;;;;;;;;13.60;93.30;;;;;;5100571;28;19916;-48
2022/03/30 09:08:10;;;;;;;;;;;13.60;93.60;;;;;;5102833;28;19919;-47
2022/03/30 09:10:36;;;;;;;;;;;14.00;93.50;;;;;;5094124;28;19908;-42
2022/03/30 09:13:03;;;;;;;;;;;14.10;93.00;;;;;;5095067;28;19909;-48
2022/03/30 09:15:28;;;;;;;;;;;14.00;93.30;;;;;;5096949;28;20037;-48
2022/03/30 09:17:58;;;;;;;;;;;13.90;93.30;;;;;;5112750;28;20359;-47
2022/03/30 09:20:23;;;;;;;;;;;13.90;92.90;;;;;;5110600;28;19916;-51
2022/03/30 09:22:50;;;;;;;;;;;13.70;93.70;;;;;;5096543;28;19959;-49
2022/03/30 09:25:16;;;;;;;;;;;13.70;94.40;;;;;;5096949;28;19999;-45
2022/03/30 09:27:42;;;;;;;;;;;13.80;93.80;;;;;;5096184;28;19961;-47
2022/03/30 09:30:14;;;;;;;;;;;13.70;93.90;;;;;;5096331;28;19920;-45
2022/03/30 09:32:41;;;;;;;;;;;13.60;94.40;;;;;;5083637;28;20216;-50
2022/03/30 09:35:17;;;;;;;;;;;13.30;94.60;;;;;;5094952;28;19908;-51
2022/03/30 09:37:43;;;;;;;;;;;13.00;95.10;;;;;;5094149;28;20346;-48
2022/03/30 09:40:09;;;;;;;;;;;12.60;95.70;;;;;;5096942;28;19916;-43
2022/03/30 09:42:34;;;;;;;;;;;12.50;96.50;;;;;;5111044;28;19915;-51
2022/03/30 09:45:00;;;;;;;;;;;12.30;96.70;;;;;;5111707;28;19927;-48
2022/03/30 09:47:35;;;;;;;;;;;12.30;97.70;;;;;;5101425;28;20370;-48
2022/03/30 09:50:00;;;;;;;;;;;12.30;98.20;;;;;;5094391;28;19915;-46
2022/03/30 09:52:29;;;;;;;;;;;12.30;98.80;;;;;;5109388;28;19912;-45
2022/03/30 09:54:57;;;;;;;;;;;12.40;99.80;;;;;;5112828;28;19915;-47
2022/03/30 09:57:24;;;;;;;;;;;12.40;99.40;;;;;;5094058;28;19912;-45
2022/03/30 10:00:04;;;;;;;;;;;12.30;99.30;;;;;;5094523;28;19920;-47
2022/03/30 10:02:31;;;;;;;;;;;12.40;99.90;;;;;;5104586;28;19931;-46
2022/03/30 10:04:57;;;;;;;;;;;12.70;99.90;;;;;;5097644;28;19919;-48
2022/03/30 10:07:22;;;;;;;;;;;13.10;99.90;;;;;;5107409;28;20090;-47
2022/03/30 10:09:49;;;;;;;;;;;13.10;99.90;;;;;;5111661;28;20358;-44
2022/03/30 10:12:17;;;;;;;;;;;13.30;99.90;;;;;;5114392;28;19914;-47
2022/03/30 10:14:48;;;;;;;;;;;13.50;99.90;;;;;;5096726;28;19934;-46
2022/03/30 10:17:14;;;;;;;;;;;13.70;99.90;;;;;;5089807;28;19913;-48
2022/03/30 10:19:42;;;;;;;;;;;13.80;99.70;;;;;;5097365;28;19916;-43
2022/03/30 10:22:12;;;;;;;;;;;13.80;99.30;;;;;;5095629;28;19927;-48
2022/03/30 10:24:49;;;;;;;;;;;13.80;99.90;;;;;;5093635;28;20406;-46
2022/03/30 10:27:34;;;;;;;;;;;13.90;99.90;;;;;;5108509;28;19957;-47
2022/03/30 10:30:05;;;;;;;;;;;14.10;99.10;;;;;;5068836;28;19938;-52
2022/03/30 10:32:33;;;;;;;;;;;13.70;99.00;;;;;;5087308;28;19999;-45
2022/03/30 10:35:04;;;;;;;;;;;13.20;99.10;;;;;;5104377;28;19919;-43
2022/03/30 10:37:33;;;;;;;;;;;13.00;99.90;;;;;;5099954;28;20006;-43
2022/03/30 10:40:05;;;;;;;;;;;13.00;99.90;;;;;;5098542;28;19958;-45
2022/03/30 10:42:46;;;;;;;;;;;13.10;99.90;;;;;;5093198;28;19916;-50
2022/03/30 10:45:23;;;;;;;;;;;13.50;99.90;;;;;;5105156;28;20343;-50
2022/03/30 10:48:08;;;;;;;;;;;13.60;99.90;;;;;;5096454;28;19922;-50
2022/03/30 10:50:34;;;;;;;;;;;13.50;99.90;;;;;;5091711;28;20273;-51
2022/03/30 10:53:00;;;;;;;;;;;13.80;99.90;;;;;;5109966;28;19998;-50
2022/03/30 10:55:25;;;;;;;;;;;14.10;99.80;;;;;;5094345;28;19966;-50
2022/03/30 10:58:01;;;;;;;;;;;14.10;99.20;;;;;;5094114;28;19916;-43
2022/03/30 11:00:28;;;;;;;;;;;14.10;98.80;;;;;;5096608;28;19961;-43
2022/03/30 11:03:08;;;;;;;;;;;13.60;99.40;;;;;;5109313;28;19999;-52
2022/03/30 11:05:35;;;;;;;;;;;13.30;99.40;;;;;;5110286;28;20262;-47
2022/03/30 11:08:05;;;;;;;;;;;13.60;99.90;;;;;;5111036;28;19987;-47
2022/03/30 11:10:45;;;;;;;;;;;13.90;99.70;;;;;;5095327;28;19942;-50
2022/03/30 11:13:11;;;;;;;;;;;13.90;99.40;;;;;;5092734;28;19908;-48
2022/03/30 11:16:12;;;;;;;;;;;13.50;99.40;;;;;;5098748;28;19940;-49
2022/03/30 11:18:57;;;;;;;;;;;13.50;99.70;;;;;;5050288;28;19909;-48
2022/03/30 11:21:24;;;;;;;;;;;13.70;99.60;;;;;;5096737;28;20269;-51
2022/03/30 11:23:52;;;;;;;;;;;13.80;99.90;;;;;;5103955;28;19995;-52
2022/03/30 11:26:18;;;;;;;;;;;14.00;99.10;;;;;;5105607;28;20409;-52
2022/03/30 11:28:43;;;;;;;;;;;14.40;98.30;;;;;;5091320;28;19954;-51
2022/03/30 11:31:19;;;;;;;;;;;13.90;98.80;;;;;;5092312;28;20052;-49
2022/03/30 11:33:44;;;;;;;;;;;13.40;99.70;;;;;;5092745;28;19912;-47
2022/03/30 11:36:10;;;;;;;;;;;13.60;99.90;;;;;;5093791;28;20295;-49
2022/03/30 11:38:37;;;;;;;;;;;13.80;99.10;;;;;;5093636;28;19916;-50
2022/03/30 11:41:06;;;;;;;;;;;13.80;99.60;;;;;;5094279;28;19927;-50
2022/03/30 11:45:12;;;;;;;;;;;14.10;99.30;;;;;;5093956;28;19947;-50
2022/03/30 11:46:27;;;;;;;;;;;14.30;98.60;;;;;;5081653;28;20422;-49
2022/03/30 11:48:53;;;;;;;;;;;13.90;99.40;;;;;;5093887;28;19912;-50
2022/03/30 11:51:24;;;;;;;;;;;14.30;99.10;;;;;;5106532;28;19923;-49
2022/03/30 11:53:50;;;;;;;;;;;14.20;99.00;;;;;;5092671;28;19980;-51
2022/03/30 11:56:15;;;;;;;;;;;13.70;99.70;;;;;;5092403;28;19912;-49
2022/03/30 11:58:44;;;;;;;;;;;13.60;99.90;;;;;;5094413;28;19912;-50
2022/03/30 12:01:13;;;;;;;;;;;13.70;99.90;;;;;;5094685;28;20305;-50
2022/03/30 12:03:40;;;;;;;;;;;13.60;99.90;;;;;;5099698;28;19969;-47
2022/03/30 12:06:06;;;;;;;;;;;13.60;99.90;;;;;;5106207;28;20270;-47
2022/03/30 12:08:42;;;;;;;;;;;13.10;99.90;;;;;;5113361;28;19911;-50
2022/03/30 12:11:07;;;;;;;;;;;13.20;99.90;;;;;;5107052;28;19998;-47
2022/03/30 12:13:33;;;;;;;;;;;13.10;99.90;;;;;;5105098;28;19939;-50
2022/03/30 12:16:02;;;;;;;;;;;13.20;99.90;;;;;;5110852;28;19918;-49
2022/03/30 12:18:28;;;;;;;;;;;13.30;99.90;;;;;;5102906;28;20312;-51
2022/03/30 12:20:54;;;;;;;;;;;13.40;99.90;;;;;;5092336;28;19923;-51
2022/03/30 12:23:19;;;;;;;;;;;13.50;99.90;;;;;;5092372;28;19912;-47
2022/03/30 12:25:44;;;;;;;;;;;13.40;99.90;;;;;;5092920;28;19944;-50
2022/03/30 12:28:10;;;;;;;;;;;13.20;99.90;;;;;;5095889;28;19912;-51
2022/03/30 12:30:37;;;;;;;;;;;13.20;99.90;;;;;;5110912;28;19927;-47
2022/03/30 12:33:03;;;;;;;;;;;13.00;99.90;;;;;;5114448;28;19911;-45
2022/03/30 12:35:34;;;;;;;;;;;12.60;99.90;;;;;;5114349;28;20396;-45
2022/03/30 12:38:09;;;;;;;;;;;12.50;99.90;;;;;;5105096;28;19919;-51
2022/03/30 12:40:36;;;;;;;;;;;12.40;99.90;;;;;;5092728;28;19938;-48
2022/03/30 12:43:02;;;;;;;;;;;12.50;99.90;;;;;;5095448;28;20057;-46
2022/03/30 12:45:28;;;;;;;;;;;12.50;99.90;;;;;;5101827;28;19940;-47
2022/03/30 12:47:55;;;;;;;;;;;12.50;99.90;;;;;;5095464;28;20404;-52
2022/03/30 12:50:27;;;;;;;;;;;12.30;99.90;;;;;;5088009;28;19912;-46
2022/03/30 12:52:53;;;;;;;;;;;12.40;99.90;;;;;;5077062;28;19912;-45
2022/03/30 12:55:18;;;;;;;;;;;12.50;99.90;;;;;;5079793;28;20287;-47
2022/03/30 12:57:53;;;;;;;;;;;12.50;99.90;;;;;;5078290;28;19912;-49
2022/03/30 13:00:23;;;;;;;;;;;12.00;99.90;;;;;;5095313;28;19916;-50
2022/03/30 13:03:00;;;;;;;;;;;11.90;99.90;;;;;;5080634;28;20383;-45
2022/03/30 13:05:27;;;;;;;;;;;11.70;99.90;;;;;;5093246;28;19955;-50
2022/03/30 13:07:52;;;;;;;;;;;11.80;99.90;;;;;;5095100;28;19908;-50
2022/03/30 13:10:19;;;;;;;;;;;12.00;99.90;;;;;;5092964;28;19969;-48
2022/03/30 13:12:53;;;;;;;;;;;12.30;99.90;;;;;;5093350;28;19989;-53
2022/03/30 13:15:21;;;;;;;;;;;12.40;99.90;;;;;;5094901;28;20397;-46
2022/03/30 13:17:56;;;;;;;;;;;12.60;99.90;;;;;;5089469;28;19916;-45
2022/03/30 13:20:22;;;;;;;;;;;12.80;99.90;;;;;;5093694;28;19916;-52
2022/03/30 13:23:01;;;;;;;;;;;13.10;99.90;;;;;;5094523;28;19912;-54
2022/03/30 13:25:32;;;;;;;;;;;13.30;99.90;;;;;;5090020;28;19912;-52
2022/03/30 13:27:59;;;;;;;;;;;13.30;99.90;;;;;;5090410;28;19920;-50
2022/03/30 13:30:25;;;;;;;;;;;13.20;99.90;;;;;;5091005;28;20365;-50
2022/03/30 13:32:50;;;;;;;;;;;13.00;99.90;;;;;;5075625;28;19917;-49
2022/03/30 13:35:16;;;;;;;;;;;13.10;99.90;;;;;;5083814;28;19920;-50
2022/03/30 13:37:41;;;;;;;;;;;12.90;99.90;;;;;;5075142;28;19940;-51
2022/03/30 13:40:08;;;;;;;;;;;12.70;99.90;;;;;;5073208;28;20304;-49
2022/03/30 13:42:34;;;;;;;;;;;12.70;99.90;;;;;;5082574;28;19923;-55
2022/03/30 13:45:00;;;;;;;;;;;12.60;99.90;;;;;;5092753;28;19935;-55
2022/03/30 13:47:27;;;;;;;;;;;12.60;99.90;;;;;;5093040;28;20022;-52
2022/03/30 13:49:53;;;;;;;;;;;12.50;99.90;;;;;;5084694;28;20007;-52
2022/03/30 13:52:19;;;;;;;;;;;12.30;99.90;;;;;;5073754;28;19943;-50
2022/03/30 13:54:44;;;;;;;;;;;12.40;99.90;;;;;;5080950;28;19967;-54
2022/03/30 13:57:10;;;;;;;;;;;12.40;99.90;;;;;;5092762;28;19908;-53
2022/03/30 13:59:35;;;;;;;;;;;12.60;99.90;;;;;;5092098;28;20328;-50
2022/03/30 14:02:02;;;;;;;;;;;12.50;99.90;;;;;;5089089;28;20366;-50
2022/03/30 14:04:27;;;;;;;;;;;12.40;99.90;;;;;;5090461;28;20255;-54
2022/03/30 14:06:53;;;;;;;;;;;12.50;99.90;;;;;;5073625;28;19912;-51
2022/03/30 14:09:19;;;;;;;;;;;12.40;99.90;;;;;;5078139;28;19912;-47
2022/03/30 14:11:45;;;;;;;;;;;12.40;99.90;;;;;;5093633;28;20069;-49
2022/03/30 14:14:10;;;;;;;;;;;12.20;99.90;;;;;;5091505;28;20094;-49
2022/03/30 14:16:35;;;;;;;;;;;12.30;99.90;;;;;;5096043;28;20007;-50
2022/03/30 14:19:01;;;;;;;;;;;12.50;99.90;;;;;;5093674;28;19930;-52
2022/03/30 14:21:26;;;;;;;;;;;12.50;99.90;;;;;;5095274;28;19935;-47
2022/03/30 14:23:52;;;;;;;;;;;12.50;99.90;;;;;;5095518;28;20021;-50